Time;durP1;ratioP1;P1;durP2;ratioP2;P2;SDS_P1;SDS_P2;PMS_P1;PMS_P2;Temp;Humidity;BMP_temperature;BMP_pressure;BME280_temperature;BME280_humidity;BME280_pressure;Samples;Min_cycle;Max_cycle;Signal;HPM_P1;HPM_P2
2023/09/07 00:00:39;;;;;;;4.40;3.47;;;21.00;99.90;;;;;;4914929;29;20600;-74
2023/09/07 00:03:05;;;;;;;3.83;2.90;;;21.00;99.90;;;;;;4911306;29;20229;-74
2023/09/07 00:05:31;;;;;;;3.43;3.13;;;21.00;99.90;;;;;;4910920;29;20685;-75
2023/09/07 00:07:57;;;;;;;5.27;3.20;;;21.10;99.90;;;;;;4914466;29;20194;-75
2023/09/07 00:10:25;;;;;;;6.73;3.83;;;21.10;99.90;;;;;;4913535;29;20645;-75
2023/09/07 00:12:51;;;;;;;3.20;2.77;;;21.20;99.90;;;;;;4928971;29;20201;-75
2023/09/07 00:15:19;;;;;;;4.03;3.10;;;21.20;99.90;;;;;;4882446;29;20608;-75
2023/09/07 00:17:45;;;;;;;3.60;2.70;;;21.30;99.90;;;;;;4914906;29;20625;-75
2023/09/07 00:20:11;;;;;;;4.10;2.73;;;21.30;99.90;;;;;;4897727;29;20613;-73
2023/09/07 00:22:37;;;;;;;4.00;3.03;;;21.30;99.90;;;;;;4914094;29;20622;-72
2023/09/07 00:25:04;;;;;;;5.30;2.83;;;21.40;99.90;;;;;;4913455;29;20586;-72
2023/09/07 00:27:30;;;;;;;3.20;2.67;;;21.40;99.90;;;;;;4929415;29;20648;-73
2023/09/07 00:29:55;;;;;;;4.30;2.30;;;21.40;99.90;;;;;;4896726;29;20701;-74
2023/09/07 00:32:21;;;;;;;3.03;2.73;;;21.40;99.90;;;;;;4897309;29;20748;-74
2023/09/07 00:34:47;;;;;;;4.43;2.37;;;21.50;99.90;;;;;;4929235;29;20220;-74
2023/09/07 00:37:13;;;;;;;2.80;2.53;;;21.50;99.90;;;;;;4914533;29;20956;-74
2023/09/07 00:39:38;;;;;;;3.40;3.10;;;21.50;99.90;;;;;;4914261;29;20186;-74
2023/09/07 00:42:04;;;;;;;4.00;2.77;;;21.50;99.90;;;;;;4928922;29;20513;-74
2023/09/07 00:44:30;;;;;;;3.97;2.40;;;21.60;99.90;;;;;;4929142;29;20550;-74
2023/09/07 00:47:00;;;;;;;4.33;2.83;;;21.60;99.90;;;;;;4928666;29;20238;-73
2023/09/07 00:49:26;;;;;;;3.57;2.67;;;21.60;99.90;;;;;;4914095;29;21007;-74
2023/09/07 00:51:52;;;;;;;4.00;2.90;;;21.60;99.90;;;;;;4913158;29;20637;-75
2023/09/07 00:54:19;;;;;;;3.90;3.10;;;21.60;99.90;;;;;;4913045;29;20644;-73
2023/09/07 00:56:45;;;;;;;2.77;2.37;;;21.60;99.90;;;;;;4881656;29;20615;-73
2023/09/07 00:59:12;;;;;;;3.77;2.20;;;21.60;99.90;;;;;;4928703;29;20601;-74
2023/09/07 01:01:38;;;;;;;3.90;2.23;;;21.60;99.90;;;;;;4914456;29;20196;-74
2023/09/07 01:04:04;;;;;;;3.63;3.07;;;21.60;99.90;;;;;;4898412;29;20621;-74
2023/09/07 01:06:36;;;;;;;4.30;3.23;;;21.50;99.90;;;;;;4933674;28;20280;-74
2023/09/07 01:09:10;;;;;;;3.60;2.87;;;21.50;99.90;;;;;;4912741;29;20594;-74
2023/09/07 01:11:39;;;;;;;4.20;2.67;;;21.50;99.90;;;;;;4897194;29;20636;-74
2023/09/07 01:14:05;;;;;;;3.80;3.17;;;21.40;99.90;;;;;;4881632;29;21238;-74
2023/09/07 01:16:35;;;;;;;3.77;2.77;;;21.40;99.90;;;;;;4912787;29;20675;-74
2023/09/07 01:19:02;;;;;;;4.03;3.10;;;21.30;99.90;;;;;;4881406;29;20193;-74
2023/09/07 01:21:35;;;;;;;3.60;3.07;;;21.30;99.90;;;;;;4928948;29;21013;-74
2023/09/07 01:24:04;;;;;;;3.97;3.07;;;21.20;99.90;;;;;;4928604;29;20614;-74
2023/09/07 01:26:30;;;;;;;3.70;2.80;;;21.20;99.90;;;;;;4912856;29;20613;-74
2023/09/07 01:28:56;;;;;;;3.70;3.00;;;21.20;99.90;;;;;;4896817;29;20636;-74
2023/09/07 01:31:21;;;;;;;3.93;2.80;;;21.10;99.90;;;;;;4897124;29;20644;-73
2023/09/07 01:33:47;;;;;;;2.80;2.00;;;21.10;99.90;;;;;;4896534;29;20330;-73
2023/09/07 01:36:13;;;;;;;3.00;2.30;;;21.00;99.90;;;;;;4897104;29;20256;-73
2023/09/07 01:38:39;;;;;;;3.47;2.13;;;21.00;99.90;;;;;;4896757;29;20186;-73
2023/09/07 01:41:04;;;;;;;3.77;2.30;;;21.00;99.90;;;;;;4898768;29;20268;-73
2023/09/07 01:43:30;;;;;;;5.17;2.70;;;20.90;99.90;;;;;;4900641;29;20686;-73
2023/09/07 01:45:56;;;;;;;3.20;2.57;;;20.90;99.90;;;;;;4900941;29;20584;-73
2023/09/07 01:48:22;;;;;;;4.20;2.43;;;20.90;99.90;;;;;;4915929;29;20192;-73
2023/09/07 01:50:53;;;;;;;3.00;2.70;;;20.80;99.90;;;;;;4900546;29;20653;-73
2023/09/07 01:53:19;;;;;;;3.90;3.50;;;20.80;99.90;;;;;;4916374;29;20202;-73
2023/09/07 01:55:45;;;;;;;3.43;2.60;;;20.70;99.90;;;;;;4917495;29;20582;-73
2023/09/07 01:58:10;;;;;;;6.17;3.67;;;20.70;99.90;;;;;;4915939;29;21168;-73
2023/09/07 02:00:38;;;;;;;4.50;3.20;;;20.60;99.90;;;;;;4932275;29;20225;-73
2023/09/07 02:03:05;;;;;;;11.00;3.50;;;20.60;99.90;;;;;;4917488;29;20205;-79
2023/09/07 02:05:32;;;;;;;5.93;2.97;;;20.60;99.90;;;;;;4918229;29;20594;-78
2023/09/07 02:07:58;;;;;;;4.30;3.00;;;20.50;99.90;;;;;;4901074;29;21011;-79
2023/09/07 02:10:24;;;;;;;5.30;3.10;;;20.50;99.90;;;;;;4921489;29;20587;-79
2023/09/07 02:12:49;;;;;;;7.53;3.20;;;20.40;99.90;;;;;;4912062;29;21243;-79
2023/09/07 02:15:15;;;;;;;4.23;2.73;;;20.40;99.90;;;;;;4902012;29;20324;-79
2023/09/07 02:17:44;;;;;;;3.57;2.90;;;20.40;99.90;;;;;;4918268;29;20238;-79
2023/09/07 02:20:11;;;;;;;4.50;2.90;;;20.40;99.90;;;;;;4888308;29;20680;-78
2023/09/07 02:22:38;;;;;;;3.20;2.73;;;20.40;99.90;;;;;;4922155;29;20629;-78
2023/09/07 02:25:05;;;;;;;3.93;2.53;;;20.40;99.90;;;;;;4936928;29;20598;-78
2023/09/07 02:27:32;;;;;;;2.90;2.53;;;20.40;99.90;;;;;;4919396;29;20593;-79
2023/09/07 02:29:58;;;;;;;3.40;2.83;;;20.40;99.90;;;;;;4901694;29;20600;-79
2023/09/07 02:32:24;;;;;;;4.80;2.80;;;20.30;99.90;;;;;;4917793;29;20657;-78
2023/09/07 02:34:50;;;;;;;4.40;3.40;;;20.30;99.90;;;;;;4917074;29;20205;-78
2023/09/07 02:37:16;;;;;;;6.60;2.97;;;20.30;99.90;;;;;;4901661;29;20202;-79
2023/09/07 02:39:42;;;;;;;4.10;3.10;;;20.30;99.90;;;;;;4931715;29;20260;-80
2023/09/07 02:42:08;;;;;;;3.40;2.80;;;20.30;99.90;;;;;;4900284;29;20178;-79
2023/09/07 02:44:35;;;;;;;3.37;2.73;;;20.30;99.90;;;;;;4915773;29;20593;-79
2023/09/07 02:47:02;;;;;;;3.27;2.80;;;20.30;99.90;;;;;;4931289;29;20178;-79
2023/09/07 02:49:28;;;;;;;3.10;2.37;;;20.30;99.90;;;;;;4916534;29;21252;-79
2023/09/07 02:51:54;;;;;;;3.87;2.60;;;20.20;99.90;;;;;;4915804;29;20762;-79
2023/09/07 02:54:20;;;;;;;3.53;2.50;;;20.20;99.90;;;;;;4899505;29;20621;-79
2023/09/07 02:56:45;;;;;;;5.43;2.83;;;20.20;99.90;;;;;;4915315;29;20581;-79
2023/09/07 02:59:11;;;;;;;4.27;3.50;;;20.20;99.90;;;;;;4883137;29;20186;-79
2023/09/07 03:01:41;;;;;;;2.77;2.47;;;20.10;99.90;;;;;;4903963;29;20192;-79
2023/09/07 03:04:07;;;;;;;4.40;3.03;;;20.10;99.90;;;;;;4883434;29;20821;-79
2023/09/07 03:06:34;;;;;;;4.03;2.80;;;20.10;99.90;;;;;;4930908;29;20601;-79
2023/09/07 03:08:59;;;;;;;2.80;2.30;;;20.10;99.90;;;;;;4898871;29;20594;-78
2023/09/07 03:11:25;;;;;;;3.20;2.70;;;20.10;99.90;;;;;;4914901;29;21244;-79
2023/09/07 03:13:52;;;;;;;3.20;2.90;;;20.10;99.90;;;;;;4899065;29;20210;-78
2023/09/07 03:16:18;;;;;;;3.73;3.27;;;20.10;99.90;;;;;;4914955;29;20590;-78
2023/09/07 03:18:43;;;;;;;6.10;2.80;;;20.10;99.90;;;;;;4898901;29;20604;-78
2023/09/07 03:21:10;;;;;;;4.00;2.90;;;20.10;99.90;;;;;;4930446;29;20595;-79
2023/09/07 03:23:36;;;;;;;5.00;3.17;;;20.00;99.90;;;;;;4914682;29;20645;-78
2023/09/07 03:26:02;;;;;;;4.07;3.03;;;20.00;99.90;;;;;;4898933;29;20594;-78
2023/09/07 03:28:28;;;;;;;4.33;2.60;;;19.90;99.90;;;;;;4914420;29;21141;-78
2023/09/07 03:30:55;;;;;;;6.37;2.90;;;19.90;99.90;;;;;;4898801;29;20638;-78
2023/09/07 03:33:21;;;;;;;4.90;3.33;;;19.80;99.90;;;;;;4914453;29;20756;-78
2023/09/07 03:35:47;;;;;;;5.03;2.90;;;19.80;99.90;;;;;;4930656;29;20594;-78
2023/09/07 03:38:13;;;;;;;3.43;2.30;;;19.80;99.90;;;;;;4929858;29;20605;-78
2023/09/07 03:40:39;;;;;;;4.10;2.90;;;19.80;99.90;;;;;;4930346;29;20621;-78
2023/09/07 03:43:05;;;;;;;4.67;3.13;;;19.70;99.90;;;;;;4914253;29;20990;-78
2023/09/07 03:45:32;;;;;;;4.90;2.90;;;19.70;99.90;;;;;;4930019;29;20621;-78
2023/09/07 03:47:59;;;;;;;4.00;3.30;;;19.70;99.90;;;;;;4898210;29;20602;-78
2023/09/07 03:50:25;;;;;;;5.97;3.20;;;19.70;99.90;;;;;;4898363;29;20612;-78
2023/09/07 03:52:50;;;;;;;5.27;2.97;;;19.70;99.90;;;;;;4898416;29;20637;-79
2023/09/07 03:55:16;;;;;;;3.30;2.57;;;19.60;99.90;;;;;;4898247;29;20174;-79
2023/09/07 03:57:42;;;;;;;3.10;2.20;;;19.60;99.90;;;;;;4915292;29;20642;-78
2023/09/07 04:00:09;;;;;;;2.87;2.27;;;19.60;99.90;;;;;;4898013;29;20178;-78
2023/09/07 04:02:42;;;;;;;8.40;3.53;;;19.60;99.90;;;;;;4915468;29;20693;-78
2023/09/07 04:05:10;;;;;;;3.23;2.63;;;19.60;99.90;;;;;;4897195;29;20590;-78
2023/09/07 04:07:37;;;;;;;3.23;2.77;;;19.60;99.90;;;;;;4914316;29;20633;-78
2023/09/07 04:10:02;;;;;;;3.13;2.53;;;19.60;99.90;;;;;;4882008;29;21205;-78
2023/09/07 04:12:28;;;;;;;3.40;3.07;;;19.70;99.90;;;;;;4914804;29;20748;-78
2023/09/07 04:14:57;;;;;;;4.90;2.57;;;19.60;99.90;;;;;;4915213;29;20209;-78
2023/09/07 04:17:22;;;;;;;3.73;2.90;;;19.60;99.90;;;;;;4915024;29;20189;-78
2023/09/07 04:19:48;;;;;;;6.37;2.90;;;19.60;99.90;;;;;;4897915;29;21008;-79
2023/09/07 04:22:14;;;;;;;5.27;3.20;;;19.60;99.90;;;;;;4913464;29;20593;-78
2023/09/07 04:24:40;;;;;;;3.20;2.40;;;19.60;99.90;;;;;;4916659;29;20926;-78
2023/09/07 04:27:06;;;;;;;4.60;3.30;;;19.60;99.90;;;;;;4913508;29;20609;-78
2023/09/07 04:29:33;;;;;;;5.13;2.57;;;19.60;99.90;;;;;;4913539;29;20185;-79
2023/09/07 04:31:59;;;;;;;4.40;2.93;;;19.60;99.90;;;;;;4918849;29;21243;-78
2023/09/07 04:34:25;;;;;;;4.10;3.10;;;19.60;99.90;;;;;;4913680;29;20190;-79
2023/09/07 04:36:55;;;;;;;3.33;2.83;;;19.60;99.90;;;;;;4913767;29;20178;-79
2023/09/07 04:39:21;;;;;;;5.27;2.70;;;19.50;99.90;;;;;;4914426;29;20598;-78
2023/09/07 04:41:47;;;;;;;4.10;3.43;;;19.50;99.90;;;;;;4883309;29;21216;-78
2023/09/07 04:44:14;;;;;;;4.00;3.47;;;19.50;99.90;;;;;;4917256;29;20657;-79
2023/09/07 04:46:39;;;;;;;2.80;2.10;;;19.40;99.90;;;;;;4916169;29;21193;-77
2023/09/07 04:49:05;;;;;;;2.90;2.40;;;19.40;99.90;;;;;;4913111;29;20596;-76
2023/09/07 04:51:31;;;;;;;3.20;2.80;;;19.40;99.90;;;;;;4922029;29;20262;-76
2023/09/07 04:53:57;;;;;;;3.03;2.30;;;19.30;99.90;;;;;;4929070;29;20717;-77
2023/09/07 04:56:28;;;;;;;3.37;2.83;;;19.30;99.90;;;;;;4929807;29;20590;-75
2023/09/07 04:58:53;;;;;;;3.73;2.80;;;19.30;99.90;;;;;;4881635;29;20189;-75
2023/09/07 05:01:19;;;;;;;8.10;5.10;;;19.20;99.90;;;;;;4913082;29;20610;-75
2023/09/07 05:03:46;;;;;;;3.87;3.20;;;19.20;99.90;;;;;;4929262;29;20216;-75
2023/09/07 05:06:13;;;;;;;5.47;3.40;;;19.20;99.90;;;;;;4921789;29;20602;-75
2023/09/07 05:08:42;;;;;;;5.73;3.10;;;19.20;99.90;;;;;;4912696;29;20229;-75
2023/09/07 05:11:07;;;;;;;4.20;3.40;;;19.10;99.90;;;;;;4914335;29;20790;-75
2023/09/07 05:13:33;;;;;;;5.30;3.00;;;19.10;99.90;;;;;;4934151;29;20754;-75
2023/09/07 05:16:01;;;;;;;4.37;2.90;;;19.10;99.90;;;;;;4899107;29;20181;-75
2023/09/07 05:18:27;;;;;;;5.67;3.00;;;19.10;99.90;;;;;;4916749;29;20586;-75
2023/09/07 05:20:53;;;;;;;4.27;2.80;;;19.10;99.90;;;;;;4885677;29;20594;-75
2023/09/07 05:23:20;;;;;;;7.70;3.70;;;19.10;99.90;;;;;;4932534;29;20233;-75
2023/09/07 05:25:48;;;;;;;5.50;3.10;;;19.10;99.90;;;;;;4916793;29;20602;-75
2023/09/07 05:28:15;;;;;;;3.83;2.97;;;19.10;99.90;;;;;;4916618;29;20593;-75
2023/09/07 05:30:42;;;;;;;4.03;3.07;;;19.10;99.90;;;;;;4885851;29;20743;-72
2023/09/07 05:33:12;;;;;;;7.33;2.77;;;19.10;99.90;;;;;;4900885;29;21200;-72
2023/09/07 05:35:40;;;;;;;4.03;3.10;;;19.10;99.90;;;;;;4932382;29;21208;-73
2023/09/07 05:38:09;;;;;;;4.27;3.17;;;19.10;99.90;;;;;;4900189;29;20586;-72
2023/09/07 05:40:41;;;;;;;4.80;2.80;;;19.10;99.90;;;;;;4932415;29;20691;-73
2023/09/07 05:43:08;;;;;;;3.47;3.13;;;19.20;99.90;;;;;;4916264;29;20653;-73
2023/09/07 05:45:39;;;;;;;3.80;2.83;;;19.20;99.90;;;;;;4902298;29;20604;-73
2023/09/07 05:48:06;;;;;;;5.40;3.27;;;19.20;99.90;;;;;;4915738;29;21008;-72
2023/09/07 05:50:37;;;;;;;4.60;2.90;;;19.20;99.90;;;;;;4916182;29;20649;-74
2023/09/07 05:53:04;;;;;;;3.90;2.50;;;19.20;99.90;;;;;;4900564;29;20677;-74
2023/09/07 05:55:31;;;;;;;5.40;3.23;;;19.30;99.90;;;;;;4932147;29;20602;-74
2023/09/07 05:57:58;;;;;;;4.03;3.10;;;19.40;99.90;;;;;;4915927;29;21137;-74
2023/09/07 06:00:25;;;;;;;5.47;3.13;;;19.40;99.90;;;;;;4906777;29;20608;-74
2023/09/07 06:02:52;;;;;;;4.50;2.33;;;19.50;99.90;;;;;;4915161;29;20636;-74
2023/09/07 06:05:27;;;;;;;6.53;3.47;;;19.60;99.90;;;;;;4900326;29;20681;-74
2023/09/07 06:07:52;;;;;;;4.77;2.93;;;19.60;99.90;;;;;;4927724;29;20596;-74
2023/09/07 06:10:19;;;;;;;8.70;3.80;;;19.70;99.90;;;;;;4916778;29;20605;-74
2023/09/07 06:12:46;;;;;;;3.20;2.40;;;19.80;99.90;;;;;;4931943;29;20197;-74
2023/09/07 06:15:16;;;;;;;5.80;2.97;;;19.80;99.90;;;;;;4899935;29;20608;-74
2023/09/07 06:17:42;;;;;;;3.47;3.00;;;19.90;99.90;;;;;;4914645;29;20946;-74
2023/09/07 06:20:09;;;;;;;4.00;2.87;;;20.00;99.90;;;;;;4915093;29;20600;-74
2023/09/07 06:22:34;;;;;;;4.20;2.33;;;20.10;99.90;;;;;;4915497;29;20641;-74
2023/09/07 06:25:00;;;;;;;3.97;2.90;;;20.20;99.90;;;;;;4883590;29;20605;-74
2023/09/07 06:27:26;;;;;;;3.77;3.00;;;20.30;99.90;;;;;;4914049;29;20600;-74
2023/09/07 06:29:52;;;;;;;4.33;2.80;;;20.40;99.90;;;;;;4914914;29;20605;-74
2023/09/07 06:32:19;;;;;;;5.20;3.50;;;20.50;99.90;;;;;;4914939;29;21287;-74
2023/09/07 06:34:45;;;;;;;4.07;3.00;;;20.60;99.90;;;;;;4930999;29;20597;-74
2023/09/07 06:37:11;;;;;;;4.37;3.30;;;20.70;99.90;;;;;;4930998;29;20605;-74
2023/09/07 06:39:38;;;;;;;6.00;3.00;;;20.90;99.90;;;;;;4931247;29;20597;-74
2023/09/07 06:42:04;;;;;;;4.43;3.10;;;21.00;99.90;;;;;;4899545;29;20653;-74
2023/09/07 06:44:37;;;;;;;4.70;3.47;;;21.10;99.90;;;;;;4899834;29;20590;-74
2023/09/07 06:47:03;;;;;;;3.80;2.90;;;21.30;99.90;;;;;;4896900;29;21294;-74
2023/09/07 06:49:29;;;;;;;3.90;3.07;;;21.70;99.90;;;;;;4901115;29;20182;-75
2023/09/07 06:51:57;;;;;;;5.77;2.50;;;22.30;99.90;;;;;;4917628;29;20249;-75
2023/09/07 06:54:22;;;;;;;3.70;2.60;;;23.10;99.90;;;;;;4900281;29;20678;-75
2023/09/07 06:56:48;;;;;;;3.30;2.70;;;24.20;99.90;;;;;;4884573;29;20589;-73
2023/09/07 06:59:14;;;;;;;4.30;3.73;;;25.20;99.90;;;;;;4899640;29;20225;-74
2023/09/07 07:01:40;;;;;;;6.57;3.80;;;26.20;99.90;;;;;;4896383;29;20183;-73
2023/09/07 07:04:07;;;;;;;3.10;2.00;;;27.30;99.90;;;;;;4913750;29;20637;-73
2023/09/07 07:06:33;;;;;;;4.13;2.43;;;28.30;99.90;;;;;;4926744;29;20183;-73
2023/09/07 07:08:59;;;;;;;6.33;2.17;;;29.30;99.90;;;;;;4942911;29;21329;-73
2023/09/07 07:11:27;;;;;;;4.40;2.50;;;30.00;99.90;;;;;;4898876;29;20749;-73
2023/09/07 07:13:52;;;;;;;3.43;2.20;;;30.90;99.90;;;;;;4914566;29;21051;-73
2023/09/07 07:16:18;;;;;;;3.30;2.00;;;31.30;99.90;;;;;;4929873;29;20247;-74
2023/09/07 07:18:44;;;;;;;3.10;2.30;;;31.90;99.70;;;;;;4913822;29;20217;-74
2023/09/07 07:21:10;;;;;;;3.50;2.03;;;32.40;97.90;;;;;;4913958;29;20181;-75
2023/09/07 07:23:36;;;;;;;3.80;2.10;;;32.80;95.30;;;;;;4915610;29;20621;-73
2023/09/07 07:26:02;;;;;;;4.27;1.80;;;33.30;94.60;;;;;;4882420;29;20597;-74
2023/09/07 07:28:29;;;;;;;4.50;2.47;;;33.80;93.70;;;;;;4929047;29;20594;-74
2023/09/07 07:30:55;;;;;;;5.50;2.37;;;34.10;90.60;;;;;;4914162;29;20649;-75
2023/09/07 07:33:22;;;;;;;4.40;1.57;;;34.20;86.00;;;;;;4882037;29;20658;-74
2023/09/07 07:35:48;;;;;;;3.00;2.00;;;34.40;84.20;;;;;;4914114;29;20616;-74
2023/09/07 07:38:15;;;;;;;2.80;1.73;;;34.80;82.70;;;;;;4880619;29;20594;-75
2023/09/07 07:40:42;;;;;;;3.33;2.17;;;35.10;80.90;;;;;;4928594;29;20214;-74
2023/09/07 07:43:10;;;;;;;2.63;1.90;;;35.50;77.60;;;;;;4929594;29;20632;-75
2023/09/07 07:45:38;;;;;;;3.93;2.20;;;35.70;74.50;;;;;;4915292;29;20644;-75
2023/09/07 07:48:07;;;;;;;2.33;1.63;;;35.80;73.50;;;;;;4912824;29;20597;-75
2023/09/07 07:50:38;;;;;;;4.40;2.13;;;36.10;71.50;;;;;;4913623;29;20718;-75
2023/09/07 07:53:06;;;;;;;4.37;2.57;;;36.50;70.50;;;;;;4915405;29;20700;-75
2023/09/07 07:55:40;;;;;;;3.20;1.83;;;36.80;67.30;;;;;;4929825;29;20594;-76
2023/09/07 07:58:09;;;;;;;3.00;2.30;;;37.10;65.20;;;;;;4913473;29;20657;-76
2023/09/07 08:00:38;;;;;;;2.77;1.63;;;37.50;64.00;;;;;;4929735;29;20685;-75
2023/09/07 08:03:08;;;;;;;4.20;1.90;;;37.40;59.20;;;;;;4897216;29;20622;-75
2023/09/07 08:05:35;;;;;;;4.17;1.97;;;37.30;57.90;;;;;;4913795;29;20585;-74
2023/09/07 08:08:02;;;;;;;3.90;1.60;;;37.40;57.60;;;;;;4897537;29;20692;-73
2023/09/07 08:10:29;;;;;;;4.40;2.20;;;37.50;58.00;;;;;;4897723;29;20586;-74
2023/09/07 08:12:56;;;;;;;5.73;1.97;;;37.90;58.40;;;;;;4897811;29;20622;-74
2023/09/07 08:15:22;;;;;;;2.80;2.00;;;38.30;57.90;;;;;;4897427;29;20721;-74
2023/09/07 08:17:50;;;;;;;2.90;1.90;;;38.40;55.40;;;;;;4913548;29;20967;-73
2023/09/07 08:20:16;;;;;;;2.10;1.40;;;38.50;54.60;;;;;;4913160;29;21196;-74
2023/09/07 08:22:42;;;;;;;3.40;1.50;;;38.70;54.40;;;;;;4882262;29;20621;-73
2023/09/07 08:25:13;;;;;;;3.63;2.27;;;39.00;54.60;;;;;;4897230;29;20670;-73
2023/09/07 08:27:47;;;;;;;4.00;1.80;;;39.20;51.60;;;;;;4912857;29;20605;-74
2023/09/07 08:30:15;;;;;;;3.90;2.60;;;38.90;50.00;;;;;;4910364;29;21029;-74
2023/09/07 08:32:41;;;;;;;3.13;1.57;;;38.50;50.10;;;;;;4914357;29;20696;-73
2023/09/07 08:35:13;;;;;;;3.90;2.77;;;38.60;51.40;;;;;;4914664;29;20634;-72
2023/09/07 08:37:40;;;;;;;2.37;2.10;;;38.60;49.40;;;;;;4913634;29;21160;-74
2023/09/07 08:40:09;;;;;;;3.50;2.00;;;38.40;48.90;;;;;;4913060;29;20628;-74
2023/09/07 08:42:38;;;;;;;4.23;2.20;;;38.30;49.20;;;;;;4913335;29;21180;-73
2023/09/07 08:45:07;;;;;;;5.67;2.00;;;38.40;47.50;;;;;;4914582;29;21128;-74
2023/09/07 08:47:37;;;;;;;4.30;1.97;;;38.30;48.80;;;;;;4914542;29;20584;-73
2023/09/07 08:50:06;;;;;;;3.00;1.83;;;38.50;49.20;;;;;;4911275;29;21181;-72
2023/09/07 08:52:32;;;;;;;2.47;1.80;;;38.80;47.90;;;;;;4916051;29;20655;-73
2023/09/07 08:55:00;;;;;;;3.43;2.23;;;38.90;48.60;;;;;;4919049;29;20670;-73
2023/09/07 08:57:29;;;;;;;2.77;1.67;;;38.60;47.50;;;;;;4928880;29;20729;-73
2023/09/07 08:59:55;;;;;;;3.90;1.77;;;38.50;47.40;;;;;;4896855;29;20590;-72
2023/09/07 09:02:21;;;;;;;2.30;1.40;;;38.70;48.50;;;;;;4913995;29;20597;-73
2023/09/07 09:04:46;;;;;;;1.83;1.27;;;39.20;49.20;;;;;;4896850;29;20610;-73
2023/09/07 09:07:12;;;;;;;7.10;1.83;;;39.30;47.70;;;;;;4928507;29;20190;-73
2023/09/07 09:09:38;;;;;;;4.50;1.57;;;39.40;47.30;;;;;;4913726;29;20196;-74
2023/09/07 09:12:13;;;;;;;2.90;1.70;;;39.60;47.40;;;;;;4908459;29;20622;-74
2023/09/07 09:14:44;;;;;;;3.23;2.00;;;39.40;46.30;;;;;;4912755;29;20184;-74
2023/09/07 09:17:13;;;;;;;2.13;1.63;;;39.50;46.50;;;;;;4914629;29;20586;-74
2023/09/07 09:19:41;;;;;;;2.40;1.77;;;39.50;46.00;;;;;;4913593;29;20600;-74
2023/09/07 09:22:07;;;;;;;2.20;1.90;;;39.60;45.70;;;;;;4913894;29;20597;-73
2023/09/07 09:24:34;;;;;;;3.93;1.80;;;39.40;45.10;;;;;;4914396;29;20592;-76
2023/09/07 09:27:00;;;;;;;4.83;1.63;;;39.30;44.30;;;;;;4897343;29;20953;-76
2023/09/07 09:29:27;;;;;;;3.47;1.90;;;39.30;44.70;;;;;;4912057;29;20590;-75
2023/09/07 09:31:53;;;;;;;4.47;2.23;;;39.20;44.80;;;;;;4914194;29;20656;-75
2023/09/07 09:34:20;;;;;;;4.20;3.50;;;39.20;45.10;;;;;;4896524;29;20638;-75
2023/09/07 09:37:35;;;;;;;2.17;1.97;;;39.30;45.00;;;;;;4896302;29;20586;-75
2023/09/07 09:40:02;;;;;;;2.57;1.70;;;39.30;44.20;;;;;;4928741;29;20597;-75
2023/09/07 09:42:28;;;;;;;2.63;1.60;;;39.10;44.40;;;;;;4915862;29;20618;-75
2023/09/07 09:44:56;;;;;;;5.33;2.07;;;38.90;44.10;;;;;;4914155;29;21172;-74
2023/09/07 09:47:22;;;;;;;2.40;1.50;;;38.90;44.40;;;;;;4928328;29;20197;-75
2023/09/07 09:49:50;;;;;;;2.73;1.47;;;39.10;44.90;;;;;;4897085;29;20700;-75
2023/09/07 09:52:16;;;;;;;2.20;2.00;;;39.50;45.50;;;;;;4906949;29;20648;-75
2023/09/07 09:54:43;;;;;;;6.53;2.37;;;39.90;44.90;;;;;;4914140;29;20593;-74
2023/09/07 09:57:09;;;;;;;3.30;2.00;;;40.20;44.60;;;;;;4914045;29;20653;-75
2023/09/07 09:59:34;;;;;;;3.00;2.50;;;40.40;45.20;;;;;;4913793;29;20585;-75
2023/09/07 10:02:02;;;;;;;5.43;2.43;;;40.60;42.90;;;;;;4914373;29;20185;-75
2023/09/07 10:04:29;;;;;;;2.33;1.73;;;40.30;42.70;;;;;;4916011;29;20213;-75
2023/09/07 10:06:58;;;;;;;2.63;1.77;;;40.10;42.60;;;;;;4931675;29;20689;-75
2023/09/07 10:09:28;;;;;;;2.43;2.23;;;40.00;42.60;;;;;;4915756;29;21104;-75
2023/09/07 10:11:54;;;;;;;2.57;2.37;;;39.80;42.50;;;;;;4899937;29;20645;-74
2023/09/07 10:14:20;;;;;;;4.83;2.53;;;39.70;42.60;;;;;;4916584;29;20621;-74
2023/09/07 10:16:52;;;;;;;3.10;1.87;;;39.40;42.40;;;;;;4915712;29;20184;-75
2023/09/07 10:19:23;;;;;;;2.20;1.70;;;39.20;43.00;;;;;;4903084;29;20601;-75
2023/09/07 10:21:50;;;;;;;3.87;1.70;;;39.40;43.90;;;;;;4915702;29;20604;-75
2023/09/07 10:24:35;;;;;;;2.77;1.70;;;39.70;43.70;;;;;;4914970;29;20716;-76
2023/09/07 10:27:06;;;;;;;2.90;1.90;;;40.00;42.60;;;;;;4915694;29;20596;-76
2023/09/07 10:29:54;;;;;;;3.17;1.53;;;39.90;42.90;;;;;;4920335;29;20597;-75
2023/09/07 10:32:23;;;;;;;3.90;2.00;;;40.20;43.30;;;;;;4930729;29;20645;-75
2023/09/07 10:34:51;;;;;;;2.37;1.80;;;40.00;42.00;;;;;;4931442;29;21092;-75
2023/09/07 10:37:18;;;;;;;3.33;2.17;;;39.80;42.00;;;;;;4899739;29;20684;-75
2023/09/07 10:39:45;;;;;;;1.90;1.60;;;39.30;41.60;;;;;;4930386;29;20177;-75
2023/09/07 10:42:21;;;;;;;2.57;1.50;;;38.90;42.10;;;;;;4914412;29;20589;-74
2023/09/07 10:44:47;;;;;;;4.10;1.70;;;38.60;42.50;;;;;;4916306;29;20586;-74
2023/09/07 10:47:13;;;;;;;2.70;1.70;;;38.50;42.80;;;;;;4929841;29;20588;-74
2023/09/07 10:49:39;;;;;;;4.00;1.87;;;38.60;43.30;;;;;;4915569;29;20241;-74
2023/09/07 10:52:05;;;;;;;3.20;2.03;;;38.70;43.70;;;;;;4929444;29;20664;-74
2023/09/07 10:54:31;;;;;;;2.47;1.63;;;38.70;43.30;;;;;;4915012;29;21055;-74
2023/09/07 10:56:58;;;;;;;3.40;1.80;;;38.60;42.80;;;;;;4916585;29;20192;-74
2023/09/07 10:59:27;;;;;;;2.63;1.70;;;38.50;42.90;;;;;;4930833;29;20185;-74
2023/09/07 11:01:53;;;;;;;3.50;1.67;;;38.30;42.60;;;;;;4915954;29;20597;-74
2023/09/07 11:04:21;;;;;;;2.13;1.77;;;38.10;42.70;;;;;;4930358;29;20651;-73
2023/09/07 11:06:48;;;;;;;4.00;1.93;;;37.80;42.70;;;;;;4900172;29;20585;-73
2023/09/07 11:09:15;;;;;;;2.80;1.90;;;37.60;43.50;;;;;;4930807;29;20705;-73
2023/09/07 11:11:46;;;;;;;5.43;1.97;;;37.40;42.90;;;;;;4930655;29;20649;-74
2023/09/07 11:14:12;;;;;;;4.43;1.73;;;37.00;43.00;;;;;;4930197;29;20622;-74
2023/09/07 11:16:40;;;;;;;2.17;1.30;;;36.80;43.40;;;;;;4930365;29;20653;-74
2023/09/07 11:19:08;;;;;;;3.17;1.60;;;36.70;43.80;;;;;;4930459;29;20185;-74
2023/09/07 11:21:35;;;;;;;3.03;1.47;;;36.60;44.20;;;;;;4898969;29;20696;-74
2023/09/07 11:24:01;;;;;;;2.50;2.00;;;36.70;45.40;;;;;;4915542;29;20677;-73
2023/09/07 11:26:27;;;;;;;4.70;1.97;;;36.80;45.00;;;;;;4915242;29;20606;-73
2023/09/07 11:28:53;;;;;;;2.80;1.70;;;37.00;45.30;;;;;;4920424;29;21030;-73
2023/09/07 11:31:22;;;;;;;2.20;1.83;;;37.20;45.10;;;;;;4898431;29;20645;-73
2023/09/07 11:33:49;;;;;;;3.03;1.73;;;37.20;45.00;;;;;;4913789;29;20251;-73
2023/09/07 11:36:15;;;;;;;2.23;1.50;;;37.30;44.90;;;;;;4915414;29;20578;-75
2023/09/07 11:38:43;;;;;;;3.93;2.83;;;37.40;44.80;;;;;;4915499;29;20578;-73
2023/09/07 11:41:09;;;;;;;2.67;2.30;;;37.30;44.50;;;;;;4913987;29;21044;-74
2023/09/07 11:43:35;;;;;;;2.90;2.20;;;37.30;44.40;;;;;;4915104;29;20649;-73
2023/09/07 11:46:01;;;;;;;2.73;2.10;;;37.30;44.70;;;;;;4882530;29;20186;-75
2023/09/07 11:48:28;;;;;;;1.87;1.57;;;37.40;44.80;;;;;;4913836;29;20535;-74
2023/09/07 11:50:54;;;;;;;2.50;2.00;;;37.50;45.10;;;;;;4915446;29;20630;-74
2023/09/07 11:53:19;;;;;;;4.30;2.33;;;37.50;44.90;;;;;;4913714;29;21186;-74
2023/09/07 11:55:45;;;;;;;4.10;1.93;;;37.40;44.60;;;;;;4921036;29;20601;-74
2023/09/07 11:58:11;;;;;;;2.50;1.70;;;37.40;45.10;;;;;;4897847;29;20261;-74
2023/09/07 12:00:37;;;;;;;2.97;1.90;;;37.50;45.40;;;;;;4929809;29;20181;-75
2023/09/07 12:03:03;;;;;;;3.40;1.80;;;37.60;45.10;;;;;;4915220;29;20197;-76
2023/09/07 12:05:29;;;;;;;3.00;2.20;;;37.50;44.90;;;;;;4914927;29;20525;-75
2023/09/07 12:07:54;;;;;;;4.00;2.10;;;37.50;44.90;;;;;;4913786;29;20608;-75
2023/09/07 12:10:20;;;;;;;2.63;1.90;;;37.50;44.70;;;;;;4933499;29;20592;-75
2023/09/07 12:12:46;;;;;;;4.00;1.83;;;37.40;44.50;;;;;;4913881;29;20233;-75
2023/09/07 12:15:12;;;;;;;2.00;1.33;;;37.30;44.20;;;;;;4914973;29;20511;-75
2023/09/07 12:17:38;;;;;;;3.03;1.63;;;37.20;44.30;;;;;;4896742;29;20193;-75
2023/09/07 12:20:09;;;;;;;3.37;1.93;;;37.10;44.60;;;;;;4897821;29;20176;-75
2023/09/07 12:22:37;;;;;;;4.00;2.67;;;36.90;44.40;;;;;;4897178;29;20804;-75
2023/09/07 12:25:10;;;;;;;5.90;2.60;;;36.80;44.70;;;;;;4913015;29;20601;-76
2023/09/07 12:27:36;;;;;;;2.43;2.00;;;36.80;44.60;;;;;;4913459;29;20597;-75
2023/09/07 12:30:11;;;;;;;3.77;1.80;;;36.60;44.40;;;;;;4912688;29;20589;-75
2023/09/07 12:32:37;;;;;;;5.00;1.93;;;36.40;44.50;;;;;;4896943;29;20268;-74
2023/09/07 12:35:05;;;;;;;2.20;1.67;;;36.20;44.80;;;;;;4913264;29;20804;-75
2023/09/07 12:37:30;;;;;;;2.83;1.87;;;36.10;45.00;;;;;;4913109;29;20182;-74
2023/09/07 12:39:56;;;;;;;3.17;2.17;;;35.80;45.30;;;;;;4956402;23;21057;-78
2023/09/07 12:42:22;;;;;;;3.50;2.20;;;35.80;45.30;;;;;;4972569;28;20260;-77
2023/09/07 12:44:47;;;;;;;3.40;2.40;;;35.70;45.40;;;;;;4969087;28;20177;-77
2023/09/07 12:47:13;;;;;;;2.53;2.23;;;35.50;45.50;;;;;;4978966;28;20171;-76